N8WEL Weather Reports


time (UTC)temp
F
wind
direction
speed
knots
gust
knots
rain 1hr
in
rain 24hr
in
rain mn
in
humidity
%
barometer
mb
20260504151030 65 0 0.0 4.3 0.00 0.01 0.00 58 1007.2
20260504150900 64 0 0.0 9.6 0.00 0.01 0.00 58 1007.4
20260504141323 61 185 0.9 9.6 0.00 0.01 0.00 60 1007.6
20260504140821 61 167 1.7 9.6 0.00 0.01 0.00 60 1007.6
20260504140321 61 190 0.9 7.8 0.00 0.01 0.00 59 1007.8
20260504130652 58 0 0.0 8.7 0.00 0.01 0.00 62 1008.4
20260504130152 57 0 0.0 7.0 0.00 0.01 0.00 62 1008.5
20260504120255 53 0 0.0 0.0 0.00 0.01 0.00 67 1008.6
20260504045628 51 0 0.0 0.9 0.00 0.01 0.00 64 1010.7
20260504045131 51 0 0.0 0.9 0.00 0.01 0.00 64 1010.7
20260504044628 51 0 0.0 0.0 0.00 0.01 0.00 65 1010.7
20260504044128 51 0 0.0 0.0 0.00 0.01 0.00 65 1010.6
20260504043640 51 0 0.0 0.0 0.00 0.01 0.00 65 1010.7
20260504043131 51 0 0.0 0.0 0.00 0.01 0.00 65 1010.8
20260504042628 51 0 0.0 0.0 0.00 0.01 0.00 66 1010.9
20260504042128 51 0 0.0 0.0 0.00 0.01 0.00 66 1010.9
20260504041629 51 0 0.0 0.0 0.00 0.01 0.00 66 1010.9
20260504041046 51 0 0.0 2.6 0.00 0.01 0.00 66 1011.1
20260504035622 51 0 0.0 0.0 0.00 0.01 0.00 67 1011.2
20260504035222 51 0 0.0 0.0 0.00 0.01 0.00 67 1011.3
20260504034900 51 0 0.0 0.0 0.00 0.01 0.00 67 1011.3
20260504034859 51 0 0.0 0.0 0.00 0.01 0.00 67 1011.3
20260504032806 50 0 0.0 0.0 0.00 0.01 0.00 68 1011.5
20260504031619 50 0 0.0 3.5 0.00 0.01 0.00 68 1011.6
20260504025142 50 0 0.0 0.0 0.00 0.01 0.00 69 1011.8
20260504024211 50 0 0.0 0.0 0.00 0.01 0.00 68 1011.9
20260504023626 50 0 0.0 0.9 0.00 0.01 0.00 68 1011.8
20260504023116 50 0 0.0 0.9 0.00 0.01 0.00 69 1011.9
20260504022115 50 0 0.0 0.0 0.00 0.01 0.00 69 1011.9
20260504021621 50 0 0.0 1.7 0.00 0.01 0.00 69 1012.0
20260504021133 50 0 0.0 1.7 0.00 0.01 0.00 69 1012.1
20260504020617 50 0 0.0 0.0 0.00 0.01 0.00 70 1012.1
20260504020308 50 0 0.0 1.7 0.00 0.01 0.00 70 1012.1
20260504015822 50 0 0.0 1.7 0.00 0.01 0.00 70 1012.1
20260504015121 49 0 0.0 0.0 0.00 0.01 0.00 70 1012.1
20260504014615 49 0 0.0 0.0 0.00 0.01 0.00 71 1012.0
20260504014115 49 0 0.0 0.0 0.00 0.01 0.00 72 1012.0
20260504013115 49 0 0.0 0.0 0.00 0.01 0.00 71 1011.9
20260504012454 49 0 0.0 4.3 0.00 0.01 0.00 73 1011.9
20260504011518 49 0 0.0 0.9 0.00 0.01 0.00 75 1012.1
20260504010957 49 0 0.0 0.9 0.00 0.01 0.00 76 1012.1
20260504010455 49 0 0.0 0.0 0.00 0.01 0.00 77 1012.1
20260504010030 49 0 0.0 0.0 0.00 0.01 0.00 78 1012.0
20260504005454 49 0 0.0 0.0 0.00 0.01 0.00 77 1012.1
20260504004954 49 0 0.0 0.0 0.00 0.01 0.00 77 1012.0
20260504004150 49 0 0.0 0.0 0.00 0.01 0.00 78 1011.9
20260504003855 49 0 0.0 0.0 0.00 0.01 0.00 79 1011.9
20260504003853 49 0 0.0 0.0 0.00 0.01 0.00 79 1012.2
20260504000755 49 0 0.0 0.0 0.00 0.01 0.00 79 1012.2
20260504000540 49 0 0.0 0.0 0.00 0.01 0.00 79 1012.2
20260503235650 49 0 0.0 0.0 0.00 0.01 0.00 79 1012.0
20260503235150 49 0 0.0 0.0 0.00 0.01 0.00 79 1012.0
20260503233515 49 0 0.0 0.0 0.00 0.01 0.01 80 1012.1
20260503232016 49 0 0.0 0.0 0.01 0.01 0.01 82 1012.4
20260503231025 49 0 0.0 0.0 0.01 0.01 0.01 83 1012.4
20260503230515 49 0 0.0 0.0 0.01 0.01 0.01 82 1012.5
20260503225542 49 0 0.0 0.0 0.01 0.01 0.01 80 1013.0
20260503225234 49 0 0.0 0.0 0.01 0.01 0.01 80 1013.1
20260503225232 49 0 0.0 0.0 0.01 0.01 0.01 75 1013.2
20260503222657 50 0 0.0 6.1 0.00 0.00 0.00 71 1014.1
20260503221735 51 0 0.0 6.1 0.00 0.00 0.00 68 1014.3
20260503221233 52 0 0.0 7.8 0.00 0.00 0.00 67 1014.2
20260503220851 52 0 0.0 7.8 0.00 0.00 0.00 62 1014.4
20260503220229 53 0 0.0 8.7 0.00 0.00 0.00 59 1014.3
20260503215905 53 247 0.9 8.7 0.00 0.00 0.00 56 1014.2
20260503215228 54 0 0.0 14.8 0.00 0.00 0.00 54 1014.1
20260503214728 55 238 3.5 14.8 0.00 0.00 0.00 51 1013.9
20260503214228 0 0.0 0.0 0.00 0.00 0.00 1013.7
20260503213729 0 0.0 0.0 0.00 0.00 0.00 1013.6
20260503213228 0 0.0 0.0 0.00 0.00 0.00 1013.7
20260503212728 0 0.0 0.0 0.00 0.00 0.00 1013.5
20260503212228 0 0.0 0.0 0.00 0.00 0.00 1013.5
20260503211728 0 0.0 0.0 0.00 0.00 0.00 1013.3
20260503211228 0 0.0 0.0 0.00 0.00 0.00 1013.2
20260503210728 0 0.0 0.0 0.00 0.00 0.00 1013.3
20260503205728 0 0.0 0.0 0.00 0.00 0.00 1013.3
20260503205228 0 0.0 0.0 0.00 0.00 0.00 1013.4
20260503204728 0 0.0 0.0 0.00 0.00 0.00 1013.4
20260503201728 0 0.0 0.0 0.00 0.00 0.00 1013.5
20260503201228 0 0.0 0.0 0.00 0.00 0.00 1013.5
20260503200728 0 0.0 0.0 0.00 0.00 0.00 1013.5
20260503200228 0 0.0 0.0 0.00 0.00 0.00 1013.7
20260503195728 0 0.0 0.0 0.00 0.00 0.00 1013.7
20260503195228 0 0.0 0.0 0.00 0.00 0.00 1013.7
20260503194728 0 0.0 0.0 0.00 0.00 0.00 1013.7
20260503194228 0 0.0 0.0 0.00 0.00 0.00 1013.7
20260503192728 0 0.0 0.0 0.00 0.00 0.00 1014.1
20260503192228 0 0.0 0.0 0.00 0.00 0.00 1014.1
20260503191728 0 0.0 0.0 0.00 0.00 0.00 1014.3
20260503190728 0 0.0 0.0 0.00 0.00 0.00 1014.5
20260503190228 0 0.0 0.0 0.00 0.00 0.00 1014.5
20260503185728 0 0.0 0.0 0.00 0.00 0.00 1014.8
20260503185228 0 0.0 0.0 0.00 0.00 0.00 1014.8
20260503184728 0 0.0 0.0 0.00 0.00 0.00 1014.8